sensor_id;sensor_type;location;lat;lon;timestamp;P1;durP1;ratioP1;P2;durP2;ratioP2
43664;SDS011;29263;48.172;11.484;2023-06-26T00:01:29;7.85;;;5.95;;
43664;SDS011;29263;48.172;11.484;2023-06-26T00:03:56;7.70;;;5.82;;
43664;SDS011;29263;48.172;11.484;2023-06-26T00:08:52;6.95;;;5.43;;
43664;SDS011;29263;48.172;11.484;2023-06-26T00:11:18;6.43;;;5.47;;
43664;SDS011;29263;48.172;11.484;2023-06-26T00:13:45;8.65;;;5.75;;
43664;SDS011;29263;48.172;11.484;2023-06-26T00:16:13;8.07;;;6.00;;
43664;SDS011;29263;48.172;11.484;2023-06-26T00:18:39;9.10;;;5.60;;
43664;SDS011;29263;48.172;11.484;2023-06-26T00:21:05;9.32;;;5.28;;
43664;SDS011;29263;48.172;11.484;2023-06-26T00:23:31;8.63;;;5.72;;
43664;SDS011;29263;48.172;11.484;2023-06-26T00:26:01;9.32;;;6.80;;
43664;SDS011;29263;48.172;11.484;2023-06-26T00:28:26;8.10;;;6.03;;
43664;SDS011;29263;48.172;11.484;2023-06-26T00:30:52;7.68;;;5.68;;
43664;SDS011;29263;48.172;11.484;2023-06-26T00:33:18;9.73;;;6.10;;
43664;SDS011;29263;48.172;11.484;2023-06-26T00:35:43;8.38;;;5.60;;
43664;SDS011;29263;48.172;11.484;2023-06-26T00:38:09;7.80;;;5.30;;
43664;SDS011;29263;48.172;11.484;2023-06-26T00:40:35;7.35;;;5.47;;
43664;SDS011;29263;48.172;11.484;2023-06-26T00:43:01;9.60;;;5.88;;
43664;SDS011;29263;48.172;11.484;2023-06-26T00:45:27;8.27;;;6.05;;
43664;SDS011;29263;48.172;11.484;2023-06-26T00:47:53;9.57;;;5.60;;
43664;SDS011;29263;48.172;11.484;2023-06-26T00:50:20;9.68;;;6.07;;
43664;SDS011;29263;48.172;11.484;2023-06-26T00:52:46;10.40;;;5.85;;
43664;SDS011;29263;48.172;11.484;2023-06-26T00:55:12;9.02;;;6.25;;
43664;SDS011;29263;48.172;11.484;2023-06-26T00:57:38;8.65;;;6.28;;
43664;SDS011;29263;48.172;11.484;2023-06-26T01:00:04;10.18;;;5.90;;
43664;SDS011;29263;48.172;11.484;2023-06-26T01:02:30;8.70;;;6.20;;
43664;SDS011;29263;48.172;11.484;2023-06-26T01:04:59;7.90;;;5.85;;
43664;SDS011;29263;48.172;11.484;2023-06-26T01:07:28;8.40;;;5.95;;
43664;SDS011;29263;48.172;11.484;2023-06-26T01:09:54;7.88;;;5.88;;
43664;SDS011;29263;48.172;11.484;2023-06-26T01:12:20;10.55;;;5.78;;
43664;SDS011;29263;48.172;11.484;2023-06-26T01:14:49;7.05;;;5.65;;
43664;SDS011;29263;48.172;11.484;2023-06-26T01:17:15;8.10;;;5.65;;
43664;SDS011;29263;48.172;11.484;2023-06-26T01:19:41;10.48;;;6.10;;
43664;SDS011;29263;48.172;11.484;2023-06-26T01:25:35;7.07;;;5.78;;
43664;SDS011;29263;48.172;11.484;2023-06-26T01:28:36;9.02;;;5.72;;
43664;SDS011;29263;48.172;11.484;2023-06-26T01:31:06;7.82;;;5.50;;
43664;SDS011;29263;48.172;11.484;2023-06-26T01:33:33;7.53;;;5.40;;
43664;SDS011;29263;48.172;11.484;2023-06-26T01:35:59;7.18;;;5.57;;
43664;SDS011;29263;48.172;11.484;2023-06-26T01:38:26;7.82;;;5.75;;
43664;SDS011;29263;48.172;11.484;2023-06-26T01:40:52;7.25;;;5.30;;
43664;SDS011;29263;48.172;11.484;2023-06-26T01:45:47;8.05;;;5.75;;
43664;SDS011;29263;48.172;11.484;2023-06-26T01:48:16;12.55;;;5.57;;
43664;SDS011;29263;48.172;11.484;2023-06-26T01:50:45;8.15;;;5.60;;
43664;SDS011;29263;48.172;11.484;2023-06-26T01:53:12;8.07;;;5.53;;
43664;SDS011;29263;48.172;11.484;2023-06-26T01:58:07;7.13;;;5.30;;
43664;SDS011;29263;48.172;11.484;2023-06-26T02:00:34;6.00;;;4.65;;
43664;SDS011;29263;48.172;11.484;2023-06-26T02:03:02;9.15;;;5.32;;
43664;SDS011;29263;48.172;11.484;2023-06-26T02:05:29;6.22;;;5.18;;
43664;SDS011;29263;48.172;11.484;2023-06-26T02:07:56;8.43;;;5.13;;
43664;SDS011;29263;48.172;11.484;2023-06-26T02:10:21;7.28;;;5.32;;
43664;SDS011;29263;48.172;11.484;2023-06-26T02:12:47;8.68;;;6.13;;
43664;SDS011;29263;48.172;11.484;2023-06-26T02:15:13;5.40;;;4.85;;
43664;SDS011;29263;48.172;11.484;2023-06-26T02:17:38;7.22;;;4.90;;
43664;SDS011;29263;48.172;11.484;2023-06-26T02:20:04;6.28;;;4.65;;
43664;SDS011;29263;48.172;11.484;2023-06-26T02:22:31;7.65;;;5.05;;
43664;SDS011;29263;48.172;11.484;2023-06-26T02:24:56;6.60;;;4.65;;
43664;SDS011;29263;48.172;11.484;2023-06-26T02:27:22;7.97;;;5.25;;
43664;SDS011;29263;48.172;11.484;2023-06-26T02:29:48;6.88;;;5.05;;
43664;SDS011;29263;48.172;11.484;2023-06-26T02:32:13;6.95;;;4.82;;
43664;SDS011;29263;48.172;11.484;2023-06-26T02:34:39;6.10;;;5.00;;
43664;SDS011;29263;48.172;11.484;2023-06-26T02:37:04;6.90;;;5.07;;
43664;SDS011;29263;48.172;11.484;2023-06-26T02:39:32;5.75;;;4.47;;
43664;SDS011;29263;48.172;11.484;2023-06-26T02:41:58;7.78;;;5.22;;
43664;SDS011;29263;48.172;11.484;2023-06-26T02:44:24;6.47;;;4.75;;
43664;SDS011;29263;48.172;11.484;2023-06-26T02:46:50;5.10;;;4.30;;
43664;SDS011;29263;48.172;11.484;2023-06-26T02:49:15;7.22;;;5.35;;
43664;SDS011;29263;48.172;11.484;2023-06-26T02:51:41;7.45;;;4.90;;
43664;SDS011;29263;48.172;11.484;2023-06-26T02:54:06;6.90;;;5.22;;
43664;SDS011;29263;48.172;11.484;2023-06-26T02:56:32;6.60;;;4.57;;
43664;SDS011;29263;48.172;11.484;2023-06-26T02:58:58;6.63;;;5.00;;
43664;SDS011;29263;48.172;11.484;2023-06-26T03:01:23;6.70;;;4.95;;
43664;SDS011;29263;48.172;11.484;2023-06-26T03:03:49;5.78;;;4.70;;
43664;SDS011;29263;48.172;11.484;2023-06-26T03:06:15;6.80;;;5.00;;
43664;SDS011;29263;48.172;11.484;2023-06-26T03:08:41;8.20;;;5.82;;
43664;SDS011;29263;48.172;11.484;2023-06-26T03:11:07;5.88;;;4.75;;
43664;SDS011;29263;48.172;11.484;2023-06-26T03:13:36;8.13;;;5.30;;
43664;SDS011;29263;48.172;11.484;2023-06-26T03:16:02;6.90;;;4.88;;
43664;SDS011;29263;48.172;11.484;2023-06-26T03:18:28;7.47;;;5.22;;
43664;SDS011;29263;48.172;11.484;2023-06-26T03:20:57;7.07;;;4.93;;
43664;SDS011;29263;48.172;11.484;2023-06-26T03:23:23;7.45;;;4.80;;
43664;SDS011;29263;48.172;11.484;2023-06-26T03:25:49;9.05;;;5.40;;
43664;SDS011;29263;48.172;11.484;2023-06-26T03:28:15;6.68;;;5.18;;
43664;SDS011;29263;48.172;11.484;2023-06-26T03:30:41;6.63;;;5.20;;
43664;SDS011;29263;48.172;11.484;2023-06-26T03:33:07;6.57;;;4.85;;
43664;SDS011;29263;48.172;11.484;2023-06-26T03:35:32;6.80;;;4.90;;
43664;SDS011;29263;48.172;11.484;2023-06-26T03:37:58;7.18;;;5.05;;
43664;SDS011;29263;48.172;11.484;2023-06-26T03:40:25;5.72;;;4.72;;
43664;SDS011;29263;48.172;11.484;2023-06-26T03:42:51;7.55;;;5.43;;
43664;SDS011;29263;48.172;11.484;2023-06-26T03:45:16;5.85;;;4.70;;
43664;SDS011;29263;48.172;11.484;2023-06-26T03:47:43;9.07;;;5.30;;
43664;SDS011;29263;48.172;11.484;2023-06-26T03:50:12;6.65;;;4.68;;
43664;SDS011;29263;48.172;11.484;2023-06-26T03:52:37;7.72;;;5.10;;
43664;SDS011;29263;48.172;11.484;2023-06-26T03:55:03;7.90;;;5.03;;
43664;SDS011;29263;48.172;11.484;2023-06-26T03:57:33;7.70;;;5.03;;
43664;SDS011;29263;48.172;11.484;2023-06-26T03:59:59;6.47;;;4.80;;
43664;SDS011;29263;48.172;11.484;2023-06-26T04:02:24;6.07;;;4.78;;
43664;SDS011;29263;48.172;11.484;2023-06-26T04:04:50;7.95;;;5.00;;
43664;SDS011;29263;48.172;11.484;2023-06-26T04:07:17;6.25;;;4.68;;
43664;SDS011;29263;48.172;11.484;2023-06-26T04:09:44;7.15;;;4.50;;
43664;SDS011;29263;48.172;11.484;2023-06-26T04:12:10;6.88;;;4.95;;
43664;SDS011;29263;48.172;11.484;2023-06-26T04:14:35;6.65;;;4.85;;
43664;SDS011;29263;48.172;11.484;2023-06-26T04:17:01;7.80;;;5.00;;
43664;SDS011;29263;48.172;11.484;2023-06-26T04:19:28;7.45;;;5.25;;
43664;SDS011;29263;48.172;11.484;2023-06-26T04:21:54;6.97;;;4.50;;
43664;SDS011;29263;48.172;11.484;2023-06-26T04:27:42;7.10;;;4.85;;
43664;SDS011;29263;48.172;11.484;2023-06-26T04:30:08;6.28;;;4.63;;
43664;SDS011;29263;48.172;11.484;2023-06-26T04:32:34;8.25;;;5.00;;
43664;SDS011;29263;48.172;11.484;2023-06-26T04:35:00;7.07;;;4.85;;
43664;SDS011;29263;48.172;11.484;2023-06-26T04:37:26;9.38;;;5.03;;
43664;SDS011;29263;48.172;11.484;2023-06-26T04:39:52;6.38;;;4.72;;
43664;SDS011;29263;48.172;11.484;2023-06-26T04:42:17;7.40;;;5.10;;
43664;SDS011;29263;48.172;11.484;2023-06-26T04:44:44;9.75;;;5.18;;
43664;SDS011;29263;48.172;11.484;2023-06-26T04:47:09;9.10;;;5.70;;
43664;SDS011;29263;48.172;11.484;2023-06-26T04:49:36;6.72;;;4.63;;
43664;SDS011;29263;48.172;11.484;2023-06-26T04:52:01;6.68;;;4.88;;
43664;SDS011;29263;48.172;11.484;2023-06-26T04:54:28;7.43;;;5.10;;
43664;SDS011;29263;48.172;11.484;2023-06-26T04:56:53;7.32;;;5.00;;
43664;SDS011;29263;48.172;11.484;2023-06-26T04:59:19;6.75;;;4.68;;
43664;SDS011;29263;48.172;11.484;2023-06-26T05:01:45;5.80;;;4.68;;
43664;SDS011;29263;48.172;11.484;2023-06-26T05:04:13;8.55;;;4.70;;
43664;SDS011;29263;48.172;11.484;2023-06-26T05:06:40;7.13;;;4.97;;
43664;SDS011;29263;48.172;11.484;2023-06-26T05:09:06;5.78;;;4.55;;
43664;SDS011;29263;48.172;11.484;2023-06-26T05:11:54;6.72;;;4.72;;
43664;SDS011;29263;48.172;11.484;2023-06-26T05:14:19;6.25;;;4.97;;
43664;SDS011;29263;48.172;11.484;2023-06-26T05:16:45;5.55;;;4.50;;
43664;SDS011;29263;48.172;11.484;2023-06-26T05:19:11;8.10;;;4.60;;
43664;SDS011;29263;48.172;11.484;2023-06-26T05:21:36;6.40;;;4.50;;
43664;SDS011;29263;48.172;11.484;2023-06-26T05:24:05;8.85;;;5.03;;
43664;SDS011;29263;48.172;11.484;2023-06-26T05:26:32;8.50;;;5.07;;
43664;SDS011;29263;48.172;11.484;2023-06-26T05:28:58;6.40;;;4.75;;
43664;SDS011;29263;48.172;11.484;2023-06-26T05:31:24;9.25;;;4.72;;
43664;SDS011;29263;48.172;11.484;2023-06-26T05:33:50;6.50;;;4.85;;
43664;SDS011;29263;48.172;11.484;2023-06-26T05:36:20;6.30;;;4.60;;
43664;SDS011;29263;48.172;11.484;2023-06-26T05:38:49;7.13;;;4.83;;
43664;SDS011;29263;48.172;11.484;2023-06-26T05:41:15;6.65;;;4.47;;
43664;SDS011;29263;48.172;11.484;2023-06-26T05:43:41;7.28;;;4.65;;
43664;SDS011;29263;48.172;11.484;2023-06-26T05:46:07;8.35;;;4.97;;
43664;SDS011;29263;48.172;11.484;2023-06-26T05:48:35;6.55;;;4.68;;
43664;SDS011;29263;48.172;11.484;2023-06-26T05:51:01;6.65;;;4.50;;
43664;SDS011;29263;48.172;11.484;2023-06-26T05:53:26;7.20;;;4.90;;
43664;SDS011;29263;48.172;11.484;2023-06-26T05:55:52;6.43;;;4.82;;
43664;SDS011;29263;48.172;11.484;2023-06-26T05:58:21;7.40;;;5.07;;
43664;SDS011;29263;48.172;11.484;2023-06-26T06:00:51;7.20;;;4.72;;
43664;SDS011;29263;48.172;11.484;2023-06-26T06:03:17;6.38;;;5.18;;
43664;SDS011;29263;48.172;11.484;2023-06-26T06:05:42;5.53;;;4.25;;
43664;SDS011;29263;48.172;11.484;2023-06-26T06:08:08;7.40;;;5.05;;
43664;SDS011;29263;48.172;11.484;2023-06-26T06:10:33;5.50;;;4.15;;
43664;SDS011;29263;48.172;11.484;2023-06-26T06:12:59;6.10;;;4.68;;
43664;SDS011;29263;48.172;11.484;2023-06-26T06:15:24;4.57;;;4.05;;
43664;SDS011;29263;48.172;11.484;2023-06-26T06:17:50;6.40;;;5.07;;
43664;SDS011;29263;48.172;11.484;2023-06-26T06:20:16;6.50;;;4.47;;
43664;SDS011;29263;48.172;11.484;2023-06-26T06:22:44;6.35;;;4.20;;
43664;SDS011;29263;48.172;11.484;2023-06-26T06:25:10;6.60;;;5.00;;
43664;SDS011;29263;48.172;11.484;2023-06-26T06:27:36;5.97;;;4.47;;
43664;SDS011;29263;48.172;11.484;2023-06-26T06:30:01;7.43;;;4.50;;
43664;SDS011;29263;48.172;11.484;2023-06-26T06:32:27;6.47;;;4.40;;
43664;SDS011;29263;48.172;11.484;2023-06-26T06:34:53;5.65;;;4.60;;
43664;SDS011;29263;48.172;11.484;2023-06-26T06:37:19;4.97;;;4.18;;
43664;SDS011;29263;48.172;11.484;2023-06-26T06:39:47;6.43;;;4.80;;
43664;SDS011;29263;48.172;11.484;2023-06-26T06:42:13;5.15;;;3.95;;
43664;SDS011;29263;48.172;11.484;2023-06-26T06:44:39;6.05;;;4.53;;
43664;SDS011;29263;48.172;11.484;2023-06-26T06:47:04;6.47;;;4.50;;
43664;SDS011;29263;48.172;11.484;2023-06-26T06:49:30;5.47;;;3.83;;
43664;SDS011;29263;48.172;11.484;2023-06-26T06:51:56;5.05;;;4.07;;
43664;SDS011;29263;48.172;11.484;2023-06-26T06:54:21;5.00;;;3.97;;
43664;SDS011;29263;48.172;11.484;2023-06-26T06:56:50;5.60;;;3.80;;
43664;SDS011;29263;48.172;11.484;2023-06-26T06:59:16;5.47;;;4.13;;
43664;SDS011;29263;48.172;11.484;2023-06-26T07:01:41;5.65;;;3.92;;
43664;SDS011;29263;48.172;11.484;2023-06-26T07:04:07;4.75;;;3.70;;
43664;SDS011;29263;48.172;11.484;2023-06-26T07:06:33;5.05;;;3.67;;
43664;SDS011;29263;48.172;11.484;2023-06-26T07:08:59;6.38;;;3.55;;
43664;SDS011;29263;48.172;11.484;2023-06-26T07:11:24;4.63;;;3.70;;
43664;SDS011;29263;48.172;11.484;2023-06-26T07:13:50;4.80;;;4.13;;
43664;SDS011;29263;48.172;11.484;2023-06-26T07:16:16;5.47;;;4.18;;
43664;SDS011;29263;48.172;11.484;2023-06-26T07:18:41;6.70;;;3.80;;
43664;SDS011;29263;48.172;11.484;2023-06-26T07:21:08;5.95;;;3.67;;
43664;SDS011;29263;48.172;11.484;2023-06-26T07:26:55;4.20;;;3.72;;
43664;SDS011;29263;48.172;11.484;2023-06-26T07:29:20;5.15;;;4.20;;
43664;SDS011;29263;48.172;11.484;2023-06-26T07:31:46;7.68;;;4.47;;
43664;SDS011;29263;48.172;11.484;2023-06-26T07:34:12;5.22;;;3.75;;
43664;SDS011;29263;48.172;11.484;2023-06-26T07:36:38;5.05;;;4.07;;
43664;SDS011;29263;48.172;11.484;2023-06-26T07:39:04;4.88;;;4.20;;
43664;SDS011;29263;48.172;11.484;2023-06-26T07:41:29;9.30;;;4.85;;
43664;SDS011;29263;48.172;11.484;2023-06-26T07:43:56;6.57;;;4.20;;
43664;SDS011;29263;48.172;11.484;2023-06-26T07:46:23;6.28;;;4.57;;
43664;SDS011;29263;48.172;11.484;2023-06-26T07:48:49;5.65;;;3.80;;
43664;SDS011;29263;48.172;11.484;2023-06-26T07:51:15;4.97;;;4.18;;
43664;SDS011;29263;48.172;11.484;2023-06-26T07:53:40;4.78;;;4.10;;
43664;SDS011;29263;48.172;11.484;2023-06-26T07:56:06;6.00;;;3.97;;
43664;SDS011;29263;48.172;11.484;2023-06-26T07:58:32;4.68;;;4.07;;
43664;SDS011;29263;48.172;11.484;2023-06-26T08:00:57;4.65;;;4.07;;
43664;SDS011;29263;48.172;11.484;2023-06-26T08:03:26;4.90;;;4.22;;
43664;SDS011;29263;48.172;11.484;2023-06-26T08:05:51;4.55;;;4.00;;
43664;SDS011;29263;48.172;11.484;2023-06-26T08:08:17;5.90;;;4.75;;
43664;SDS011;29263;48.172;11.484;2023-06-26T08:10:43;5.40;;;4.20;;
43664;SDS011;29263;48.172;11.484;2023-06-26T08:13:09;5.97;;;4.70;;
43664;SDS011;29263;48.172;11.484;2023-06-26T08:15:35;6.57;;;4.50;;
43664;SDS011;29263;48.172;11.484;2023-06-26T08:18:00;6.00;;;4.78;;
43664;SDS011;29263;48.172;11.484;2023-06-26T08:20:26;5.28;;;3.97;;
43664;SDS011;29263;48.172;11.484;2023-06-26T08:22:53;5.43;;;4.43;;
43664;SDS011;29263;48.172;11.484;2023-06-26T08:25:19;5.28;;;4.38;;
43664;SDS011;29263;48.172;11.484;2023-06-26T08:27:45;6.05;;;4.32;;
43664;SDS011;29263;48.172;11.484;2023-06-26T08:30:11;5.22;;;4.22;;
43664;SDS011;29263;48.172;11.484;2023-06-26T08:32:38;6.13;;;4.18;;
43664;SDS011;29263;48.172;11.484;2023-06-26T08:35:04;5.63;;;4.32;;
43664;SDS011;29263;48.172;11.484;2023-06-26T08:37:31;4.40;;;3.97;;
43664;SDS011;29263;48.172;11.484;2023-06-26T08:39:57;5.15;;;4.18;;
43664;SDS011;29263;48.172;11.484;2023-06-26T08:42:25;5.87;;;4.17;;
43664;SDS011;29263;48.172;11.484;2023-06-26T08:44:51;5.53;;;4.40;;
43664;SDS011;29263;48.172;11.484;2023-06-26T08:47:17;5.03;;;3.90;;
43664;SDS011;29263;48.172;11.484;2023-06-26T08:49:53;5.18;;;4.30;;
43664;SDS011;29263;48.172;11.484;2023-06-26T08:52:30;4.85;;;4.13;;
43664;SDS011;29263;48.172;11.484;2023-06-26T08:54:59;6.43;;;4.22;;
43664;SDS011;29263;48.172;11.484;2023-06-26T08:57:27;6.07;;;4.00;;
43664;SDS011;29263;48.172;11.484;2023-06-26T08:59:57;4.53;;;3.75;;
43664;SDS011;29263;48.172;11.484;2023-06-26T09:02:23;5.82;;;3.78;;
43664;SDS011;29263;48.172;11.484;2023-06-26T09:04:49;5.13;;;4.05;;
43664;SDS011;29263;48.172;11.484;2023-06-26T09:07:16;4.80;;;4.00;;
43664;SDS011;29263;48.172;11.484;2023-06-26T09:09:42;4.53;;;3.95;;
43664;SDS011;29263;48.172;11.484;2023-06-26T09:12:08;4.13;;;2.97;;
43664;SDS011;29263;48.172;11.484;2023-06-26T09:14:34;5.00;;;3.60;;
43664;SDS011;29263;48.172;11.484;2023-06-26T09:17:02;3.90;;;3.50;;
43664;SDS011;29263;48.172;11.484;2023-06-26T09:19:27;7.15;;;3.90;;
43664;SDS011;29263;48.172;11.484;2023-06-26T09:21:53;5.55;;;4.07;;
43664;SDS011;29263;48.172;11.484;2023-06-26T09:24:40;4.70;;;3.22;;
43664;SDS011;29263;48.172;11.484;2023-06-26T09:27:07;4.10;;;3.67;;
43664;SDS011;29263;48.172;11.484;2023-06-26T09:29:33;3.83;;;3.35;;
43664;SDS011;29263;48.172;11.484;2023-06-26T09:32:00;4.70;;;3.58;;
43664;SDS011;29263;48.172;11.484;2023-06-26T09:34:32;3.47;;;2.75;;
43664;SDS011;29263;48.172;11.484;2023-06-26T09:36:59;3.35;;;2.90;;
43664;SDS011;29263;48.172;11.484;2023-06-26T09:39:29;4.45;;;2.88;;
43664;SDS011;29263;48.172;11.484;2023-06-26T09:41:56;6.80;;;2.92;;
43664;SDS011;29263;48.172;11.484;2023-06-26T09:44:22;4.63;;;3.15;;
43664;SDS011;29263;48.172;11.484;2023-06-26T09:46:48;3.20;;;2.88;;
43664;SDS011;29263;48.172;11.484;2023-06-26T09:49:17;3.30;;;3.00;;
43664;SDS011;29263;48.172;11.484;2023-06-26T09:51:43;3.78;;;2.95;;
43664;SDS011;29263;48.172;11.484;2023-06-26T09:54:09;4.18;;;2.67;;
43664;SDS011;29263;48.172;11.484;2023-06-26T09:56:35;3.33;;;2.75;;
43664;SDS011;29263;48.172;11.484;2023-06-26T09:59:02;4.03;;;2.58;;
43664;SDS011;29263;48.172;11.484;2023-06-26T10:01:29;3.60;;;2.78;;
43664;SDS011;29263;48.172;11.484;2023-06-26T10:03:56;3.60;;;2.80;;
43664;SDS011;29263;48.172;11.484;2023-06-26T10:06:26;4.47;;;2.97;;
43664;SDS011;29263;48.172;11.484;2023-06-26T10:08:54;4.07;;;3.40;;
43664;SDS011;29263;48.172;11.484;2023-06-26T10:11:23;3.00;;;2.70;;
43664;SDS011;29263;48.172;11.484;2023-06-26T10:13:55;5.70;;;2.67;;
43664;SDS011;29263;48.172;11.484;2023-06-26T10:16:26;3.70;;;2.78;;
43664;SDS011;29263;48.172;11.484;2023-06-26T10:18:53;3.40;;;2.25;;
43664;SDS011;29263;48.172;11.484;2023-06-26T10:24:45;3.83;;;3.10;;
43664;SDS011;29263;48.172;11.484;2023-06-26T10:27:23;3.85;;;2.88;;
43664;SDS011;29263;48.172;11.484;2023-06-26T10:29:53;3.42;;;3.13;;
43664;SDS011;29263;48.172;11.484;2023-06-26T10:32:21;2.85;;;2.50;;
43664;SDS011;29263;48.172;11.484;2023-06-26T10:34:50;3.63;;;2.60;;
43664;SDS011;29263;48.172;11.484;2023-06-26T10:37:16;5.25;;;3.05;;
43664;SDS011;29263;48.172;11.484;2023-06-26T10:39:51;3.33;;;3.00;;
43664;SDS011;29263;48.172;11.484;2023-06-26T10:42:20;3.22;;;2.92;;
43664;SDS011;29263;48.172;11.484;2023-06-26T10:45:08;3.15;;;2.78;;
43664;SDS011;29263;48.172;11.484;2023-06-26T10:47:47;3.85;;;2.92;;
43664;SDS011;29263;48.172;11.484;2023-06-26T10:50:21;2.97;;;2.67;;
43664;SDS011;29263;48.172;11.484;2023-06-26T11:01:17;3.13;;;2.72;;
43664;SDS011;29263;48.172;11.484;2023-06-26T11:03:45;5.25;;;3.13;;
43664;SDS011;29263;48.172;11.484;2023-06-26T11:06:16;6.13;;;2.80;;
43664;SDS011;29263;48.172;11.484;2023-06-26T11:08:50;3.72;;;3.22;;
43664;SDS011;29263;48.172;11.484;2023-06-26T11:11:55;4.32;;;3.13;;
43664;SDS011;29263;48.172;11.484;2023-06-26T11:14:19;4.25;;;3.20;;
43664;SDS011;29263;48.172;11.484;2023-06-26T11:16:48;3.95;;;3.10;;
43664;SDS011;29263;48.172;11.484;2023-06-26T11:19:14;3.80;;;3.40;;
43664;SDS011;29263;48.172;11.484;2023-06-26T11:21:41;4.93;;;3.53;;
43664;SDS011;29263;48.172;11.484;2023-06-26T11:24:09;4.80;;;3.53;;
43664;SDS011;29263;48.172;11.484;2023-06-26T11:26:39;4.25;;;3.28;;
43664;SDS011;29263;48.172;11.484;2023-06-26T11:29:06;3.95;;;3.22;;
43664;SDS011;29263;48.172;11.484;2023-06-26T11:31:32;3.40;;;3.10;;
43664;SDS011;29263;48.172;11.484;2023-06-26T11:34:00;4.20;;;3.05;;
43664;SDS011;29263;48.172;11.484;2023-06-26T11:36:27;5.25;;;3.47;;
43664;SDS011;29263;48.172;11.484;2023-06-26T11:38:55;3.53;;;3.00;;
43664;SDS011;29263;48.172;11.484;2023-06-26T11:41:25;4.25;;;3.40;;
43664;SDS011;29263;48.172;11.484;2023-06-26T11:43:52;6.75;;;3.20;;
43664;SDS011;29263;48.172;11.484;2023-06-26T11:46:18;3.70;;;3.30;;
43664;SDS011;29263;48.172;11.484;2023-06-26T11:48:45;4.75;;;3.70;;
43664;SDS011;29263;48.172;11.484;2023-06-26T11:51:14;4.00;;;3.50;;
43664;SDS011;29263;48.172;11.484;2023-06-26T11:53:43;3.65;;;3.30;;
43664;SDS011;29263;48.172;11.484;2023-06-26T11:56:11;3.58;;;3.20;;
43664;SDS011;29263;48.172;11.484;2023-06-26T11:58:56;5.53;;;3.63;;
43664;SDS011;29263;48.172;11.484;2023-06-26T12:04:04;3.78;;;3.17;;
43664;SDS011;29263;48.172;11.484;2023-06-26T12:06:32;3.72;;;3.30;;
43664;SDS011;29263;48.172;11.484;2023-06-26T12:09:06;3.97;;;3.25;;
43664;SDS011;29263;48.172;11.484;2023-06-26T12:11:34;3.30;;;3.00;;
43664;SDS011;29263;48.172;11.484;2023-06-26T12:14:01;4.70;;;3.33;;
43664;SDS011;29263;48.172;11.484;2023-06-26T12:16:28;3.47;;;3.05;;
43664;SDS011;29263;48.172;11.484;2023-06-26T12:19:01;3.42;;;3.10;;
43664;SDS011;29263;48.172;11.484;2023-06-26T12:24:03;4.75;;;3.28;;
43664;SDS011;29263;48.172;11.484;2023-06-26T12:26:29;4.78;;;3.60;;
43664;SDS011;29263;48.172;11.484;2023-06-26T12:29:05;3.83;;;3.35;;
43664;SDS011;29263;48.172;11.484;2023-06-26T12:31:32;4.03;;;3.53;;
43664;SDS011;29263;48.172;11.484;2023-06-26T12:33:59;3.90;;;3.28;;
43664;SDS011;29263;48.172;11.484;2023-06-26T12:36:25;3.92;;;3.53;;
43664;SDS011;29263;48.172;11.484;2023-06-26T12:38:52;5.65;;;3.20;;
43664;SDS011;29263;48.172;11.484;2023-06-26T12:41:18;3.58;;;3.28;;
43664;SDS011;29263;48.172;11.484;2023-06-26T12:43:45;4.10;;;3.45;;
43664;SDS011;29263;48.172;11.484;2023-06-26T12:46:11;4.30;;;3.70;;
43664;SDS011;29263;48.172;11.484;2023-06-26T12:48:40;4.60;;;3.88;;
43664;SDS011;29263;48.172;11.484;2023-06-26T12:51:14;4.68;;;3.63;;
43664;SDS011;29263;48.172;11.484;2023-06-26T12:53:42;5.28;;;3.53;;
43664;SDS011;29263;48.172;11.484;2023-06-26T12:56:08;5.15;;;3.63;;
43664;SDS011;29263;48.172;11.484;2023-06-26T12:58:35;3.60;;;3.30;;
43664;SDS011;29263;48.172;11.484;2023-06-26T13:01:03;4.22;;;3.65;;
43664;SDS011;29263;48.172;11.484;2023-06-26T13:03:32;4.60;;;3.70;;
43664;SDS011;29263;48.172;11.484;2023-06-26T13:05:58;4.80;;;3.83;;
43664;SDS011;29263;48.172;11.484;2023-06-26T13:08:23;4.47;;;3.78;;
43664;SDS011;29263;48.172;11.484;2023-06-26T13:10:49;4.20;;;3.63;;
43664;SDS011;29263;48.172;11.484;2023-06-26T13:13:14;4.63;;;4.03;;
43664;SDS011;29263;48.172;11.484;2023-06-26T13:15:40;5.68;;;4.10;;
43664;SDS011;29263;48.172;11.484;2023-06-26T13:21:33;5.20;;;3.90;;
43664;SDS011;29263;48.172;11.484;2023-06-26T13:23:59;8.20;;;4.93;;
43664;SDS011;29263;48.172;11.484;2023-06-26T13:26:25;4.45;;;3.70;;
43664;SDS011;29263;48.172;11.484;2023-06-26T13:28:53;5.10;;;4.60;;
43664;SDS011;29263;48.172;11.484;2023-06-26T13:31:18;8.75;;;3.90;;
43664;SDS011;29263;48.172;11.484;2023-06-26T13:33:44;5.35;;;3.75;;
43664;SDS011;29263;48.172;11.484;2023-06-26T13:36:13;5.72;;;3.97;;
43664;SDS011;29263;48.172;11.484;2023-06-26T13:38:39;4.13;;;3.67;;
43664;SDS011;29263;48.172;11.484;2023-06-26T13:41:05;4.25;;;3.65;;
43664;SDS011;29263;48.172;11.484;2023-06-26T13:43:31;5.35;;;4.13;;
43664;SDS011;29263;48.172;11.484;2023-06-26T13:45:56;5.43;;;4.07;;
43664;SDS011;29263;48.172;11.484;2023-06-26T13:48:22;4.90;;;4.40;;
43664;SDS011;29263;48.172;11.484;2023-06-26T13:50:51;5.07;;;4.30;;
43664;SDS011;29263;48.172;11.484;2023-06-26T13:53:17;5.30;;;4.00;;
43664;SDS011;29263;48.172;11.484;2023-06-26T13:55:43;4.03;;;3.63;;
43664;SDS011;29263;48.172;11.484;2023-06-26T13:58:09;4.97;;;4.18;;
43664;SDS011;29263;48.172;11.484;2023-06-26T14:00:35;4.10;;;3.72;;
43664;SDS011;29263;48.172;11.484;2023-06-26T14:03:04;4.18;;;3.78;;
43664;SDS011;29263;48.172;11.484;2023-06-26T14:05:34;6.80;;;4.00;;
43664;SDS011;29263;48.172;11.484;2023-06-26T14:08:04;4.45;;;3.70;;
43664;SDS011;29263;48.172;11.484;2023-06-26T14:10:32;4.00;;;3.50;;
43664;SDS011;29263;48.172;11.484;2023-06-26T14:12:58;4.18;;;3.78;;
43664;SDS011;29263;48.172;11.484;2023-06-26T14:15:25;4.15;;;3.55;;
43664;SDS011;29263;48.172;11.484;2023-06-26T14:17:51;4.50;;;3.85;;
43664;SDS011;29263;48.172;11.484;2023-06-26T14:20:17;6.25;;;4.15;;
43664;SDS011;29263;48.172;11.484;2023-06-26T14:22:44;6.90;;;4.00;;
43664;SDS011;29263;48.172;11.484;2023-06-26T14:25:10;4.40;;;3.90;;
43664;SDS011;29263;48.172;11.484;2023-06-26T14:27:37;6.25;;;4.25;;
43664;SDS011;29263;48.172;11.484;2023-06-26T14:30:04;6.25;;;4.10;;
43664;SDS011;29263;48.172;11.484;2023-06-26T14:32:30;6.10;;;3.70;;
43664;SDS011;29263;48.172;11.484;2023-06-26T14:34:56;5.32;;;4.45;;
43664;SDS011;29263;48.172;11.484;2023-06-26T14:37:22;4.88;;;3.95;;
43664;SDS011;29263;48.172;11.484;2023-06-26T14:39:49;5.43;;;4.22;;
43664;SDS011;29263;48.172;11.484;2023-06-26T14:42:15;5.05;;;4.47;;
43664;SDS011;29263;48.172;11.484;2023-06-26T14:44:40;4.28;;;3.88;;
43664;SDS011;29263;48.172;11.484;2023-06-26T14:47:06;6.00;;;4.68;;
43664;SDS011;29263;48.172;11.484;2023-06-26T14:49:32;5.63;;;4.47;;
43664;SDS011;29263;48.172;11.484;2023-06-26T14:51:57;6.38;;;4.88;;
43664;SDS011;29263;48.172;11.484;2023-06-26T14:54:23;5.65;;;4.82;;
43664;SDS011;29263;48.172;11.484;2023-06-26T14:56:49;5.93;;;5.10;;
43664;SDS011;29263;48.172;11.484;2023-06-26T14:59:15;6.25;;;4.82;;
43664;SDS011;29263;48.172;11.484;2023-06-26T15:01:40;5.57;;;4.88;;
43664;SDS011;29263;48.172;11.484;2023-06-26T15:04:06;5.45;;;4.18;;
43664;SDS011;29263;48.172;11.484;2023-06-26T15:06:32;5.22;;;4.65;;
43664;SDS011;29263;48.172;11.484;2023-06-26T15:08:58;4.85;;;4.32;;
43664;SDS011;29263;48.172;11.484;2023-06-26T15:11:24;5.38;;;4.88;;